Shinkai Maru — JJ4012 — position and weather

sailwx.info

Track history (hours):
 
Tides and Currents Weather Stations Pressure Air Temp Water Temp Dewpoint Dewpoint Depression Visibility Wind Speed Wind Dir Waves Ship Positions

Shinkai Maru

Last reported at 2015-Sep-01 22:19 UTC. Time now 2015-Sep-02 02:25 UTC.
Position N 35°56' E 140°40'.

Length 76 m; draft 3.4 m.

Type: Cargo ship. MMSI: 431301346.

Date/timePositionNaut miles runAvg speedWind from/ knotsBaromVisibWave heightAir tempDewpointWater temp
2015-Sep-01 22:19N 35°56' E 140°40'4 4.7
2015-Sep-01 21:31N 35°59' E 140°42'0 0.1
2015-Sep-01 19:33N 35°59' E 140°42'0 0.0
2015-Sep-01 17:33N 35°59' E 140°42'0 0.0
2015-Sep-01 15:27N 35°59' E 140°42'5 5.7
2015-Sep-01 14:33N 35°55' E 140°46'6111.5
2015-Sep-01 09:17N 35°01' E 140°12'912.5
2015-Sep-01 08:33N 34°56' E 140°03'17 8.3
2015-Sep-01 06:33N 35°01' E 139°44'1312.8
2015-Sep-01 05:34N 35°14' E 139°46'1110.9
2015-Sep-01 04:34N 35°25' E 139°43'1212.0
2015-Sep-01 03:34N 35°33' E 139°54'3 3.3
2015-Sep-01 02:31N 35°36' E 139°56'0 0.0
2015-Sep-01 01:31N 35°36' E 139°56'0 0.0
2015-Sep-01 00:25N 35°36' E 139°56'0 0.1
2015-Aug-31 23:28N 35°36' E 139°56'0 0.0
2015-Aug-31 22:16N 35°36' E 139°56'1 0.8
2015-Aug-31 21:33N 35°36' E 139°56'5 4.9
2015-Aug-31 20:31N 35°41' E 139°57'0 0.0
2015-Aug-31 19:31N 35°41' E 139°57'0 0.0
2015-Aug-31 18:31N 35°41' E 139°57'0 0.0
2015-Aug-31 17:07N 35°41' E 139°57'0 0.0
2015-Aug-31 16:28N 35°41' E 139°57'0 0.0
2015-Aug-31 15:31N 35°41' E 139°57'0 0.0
2015-Aug-31 14:31N 35°41' E 139°57'0 0.0
2015-Aug-31 13:25N 35°41' E 139°57'0 0.0
2015-Aug-31 12:31N 35°41' E 139°57'0 0.0
2015-Aug-31 11:31N 35°41' E 139°57'0 0.0
2015-Aug-31 10:25N 35°41' E 139°57'0 0.0
2015-Aug-31 09:31N 35°41' E 139°57'0 0.0
2015-Aug-31 08:28N 35°41' E 139°57'1 1.6
2015-Aug-31 07:33N 35°40' E 139°57'3 2.2
2015-Aug-31 06:26N 35°37' E 139°58'0 0.0
2015-Aug-31 05:20N 35°37' E 139°58'0 0.0
2015-Aug-31 04:32N 35°37' E 139°58'0 0.0
2015-Aug-31 03:32N 35°37' E 139°58'0 0.0
2015-Aug-31 02:32N 35°37' E 139°58'0 0.0
2015-Aug-31 01:32N 35°37' E 139°58'3 3.1
2015-Aug-31 00:34N 35°40' E 139°57'1 0.6
2015-Aug-30 23:33N 35°41' E 139°58'0 0.0
2015-Aug-30 22:33N 35°41' E 139°58'0 0.0
2015-Aug-30 21:33N 35°41' E 139°58'0 0.0
2015-Aug-30 20:30N 35°41' E 139°58'0 0.0
2015-Aug-30 19:30N 35°41' E 139°58'0 0.0
2015-Aug-30 18:33N 35°41' E 139°58'0 0.0
2015-Aug-30 17:30N 35°41' E 139°58'0 0.0
2015-Aug-30 16:33N 35°41' E 139°58'0 0.0
2015-Aug-30 15:33N 35°41' E 139°58'0 0.0
2015-Aug-30 14:30N 35°41' E 139°58'0 0.0
2015-Aug-30 13:33N 35°41' E 139°58'0 0.0
2015-Aug-30 12:33N 35°41' E 139°58'0 0.0
2015-Aug-30 11:30N 35°41' E 139°58'0 0.0
2015-Aug-30 10:30N 35°41' E 139°58'0 0.0
2015-Aug-30 09:30N 35°41' E 139°58'0 0.0
2015-Aug-30 08:33N 35°41' E 139°58'0 0.0
2015-Aug-30 07:30N 35°41' E 139°58'0 0.0
2015-Aug-30 06:24N 35°41' E 139°58'0 0.0
2015-Aug-30 05:33N 35°41' E 139°58'0 0.0
2015-Aug-30 04:33N 35°41' E 139°58'0 0.0
2015-Aug-30 03:33N 35°41' E 139°58'0 0.0
2015-Aug-30 02:33N 35°41' E 139°58'0 0.0
2015-Aug-30 01:30N 35°41' E 139°58'0 0.0
2015-Aug-30 00:33N 35°41' E 139°58'0 0.4
2015-Aug-29 23:23N 35°40' E 139°57'3 3.7
2015-Aug-29 22:33N 35°38' E 139°59'2 1.4
2015-Aug-29 21:23N 35°36' E 139°58'0 0.0
2015-Aug-29 20:17N 35°36' E 139°58'0 0.0
2015-Aug-29 19:17N 35°36' E 139°58'0 0.0
2015-Aug-29 18:29N 35°36' E 139°58'0 0.0
2015-Aug-29 17:29N 35°36' E 139°58'0 0.0
2015-Aug-29 16:11N 35°36' E 139°58'0 0.0
2015-Aug-29 15:29N 35°36' E 139°58'0 0.0
2015-Aug-29 14:23N 35°36' E 139°58'0 0.0
2015-Aug-29 13:23N 35°36' E 139°58'0 0.0
2015-Aug-29 12:29N 35°36' E 139°58'0 0.0
2015-Aug-29 11:11N 35°36' E 139°58'0 0.0
2015-Aug-29 10:29N 35°36' E 139°58'0 0.0
2015-Aug-29 09:29N 35°36' E 139°58'0 0.0
2015-Aug-29 08:17N 35°36' E 139°58'0 0.0
2015-Aug-29 07:23N 35°36' E 139°58'0 0.0
2015-Aug-29 06:29N 35°36' E 139°58'0 0.0
2015-Aug-29 05:29N 35°36' E 139°58'0 0.0
2015-Aug-29 03:29N 35°36' E 139°58'0 0.0
2015-Aug-29 02:23N 35°36' E 139°58'0 0.0
2015-Aug-29 01:11N 35°36' E 139°58'0 0.0
2015-Aug-29 00:05N 35°36' E 139°58'0 0.0
2015-Aug-28 23:29N 35°36' E 139°58'0 0.0
2015-Aug-28 22:17N 35°36' E 139°58'0 0.0
2015-Aug-28 21:29N 35°36' E 139°58'0 0.0
2015-Aug-28 20:29N 35°36' E 139°58'0 0.0
2015-Aug-28 19:11N 35°36' E 139°58'0 0.0
2015-Aug-28 18:23N 35°36' E 139°58'0 0.0
2015-Aug-28 17:17N 35°36' E 139°58'0 0.0
2015-Aug-28 16:29N 35°36' E 139°58'0 0.0
2015-Aug-28 15:29N 35°36' E 139°58'0 0.0
2015-Aug-28 14:23N 35°36' E 139°58'3 3.6
2015-Aug-28 13:33N 35°34' E 139°56'1211.5
2015-Aug-28 12:33N 35°25' E 139°47'10 9.9
2015-Aug-28 11:33N 35°15' E 139°47'1210.8
2015-Aug-28 10:25N 35°03' E 139°41'  
Track history (hours):
 
Tides and Currents Weather Stations Pressure Air Temp Water Temp Dewpoint Dewpoint Depression Visibility Wind Speed Wind Dir Waves Ship Positions

Shinkai Maru

Last reported at 2015-Sep-01 22:19 UTC. Time now 2015-Sep-02 02:25 UTC.
Position N 35°56' E 140°40'.

Length 76 m; draft 3.4 m.

Type: Cargo ship. MMSI: 431301346.

Date/timePositionNaut miles runAvg speedWind from/ knotsBaromVisibWave heightAir tempDewpointWater temp
2015-Sep-01 22:19N 35°56' E 140°40'4 4.7
2015-Sep-01 21:31N 35°59' E 140°42'0 0.1
2015-Sep-01 19:33N 35°59' E 140°42'0 0.0
2015-Sep-01 17:33N 35°59' E 140°42'0 0.0
2015-Sep-01 15:27N 35°59' E 140°42'5 5.7
2015-Sep-01 14:33N 35°55' E 140°46'6111.5
2015-Sep-01 09:17N 35°01' E 140°12'912.5
2015-Sep-01 08:33N 34°56' E 140°03'17 8.3
2015-Sep-01 06:33N 35°01' E 139°44'1312.8
2015-Sep-01 05:34N 35°14' E 139°46'1110.9
2015-Sep-01 04:34N 35°25' E 139°43'1212.0
2015-Sep-01 03:34N 35°33' E 139°54'3 3.3
2015-Sep-01 02:31N 35°36' E 139°56'0 0.0
2015-Sep-01 01:31N 35°36' E 139°56'0 0.0
2015-Sep-01 00:25N 35°36' E 139°56'0 0.1
2015-Aug-31 23:28N 35°36' E 139°56'0 0.0
2015-Aug-31 22:16N 35°36' E 139°56'1 0.8
2015-Aug-31 21:33N 35°36' E 139°56'5 4.9
2015-Aug-31 20:31N 35°41' E 139°57'0 0.0
2015-Aug-31 19:31N 35°41' E 139°57'0 0.0
2015-Aug-31 18:31N 35°41' E 139°57'0 0.0
2015-Aug-31 17:07N 35°41' E 139°57'0 0.0
2015-Aug-31 16:28N 35°41' E 139°57'0 0.0
2015-Aug-31 15:31N 35°41' E 139°57'0 0.0
2015-Aug-31 14:31N 35°41' E 139°57'0 0.0
2015-Aug-31 13:25N 35°41' E 139°57'0 0.0
2015-Aug-31 12:31N 35°41' E 139°57'0 0.0
2015-Aug-31 11:31N 35°41' E 139°57'0 0.0
2015-Aug-31 10:25N 35°41' E 139°57'0 0.0
2015-Aug-31 09:31N 35°41' E 139°57'0 0.0
2015-Aug-31 08:28N 35°41' E 139°57'1 1.6
2015-Aug-31 07:33N 35°40' E 139°57'3 2.2
2015-Aug-31 06:26N 35°37' E 139°58'0 0.0
2015-Aug-31 05:20N 35°37' E 139°58'0 0.0
2015-Aug-31 04:32N 35°37' E 139°58'0 0.0
2015-Aug-31 03:32N 35°37' E 139°58'0 0.0
2015-Aug-31 02:32N 35°37' E 139°58'0 0.0
2015-Aug-31 01:32N 35°37' E 139°58'3 3.1
2015-Aug-31 00:34N 35°40' E 139°57'1 0.6
2015-Aug-30 23:33N 35°41' E 139°58'0 0.0
2015-Aug-30 22:33N 35°41' E 139°58'0 0.0
2015-Aug-30 21:33N 35°41' E 139°58'0 0.0
2015-Aug-30 20:30N 35°41' E 139°58'0 0.0
2015-Aug-30 19:30N 35°41' E 139°58'0 0.0
2015-Aug-30 18:33N 35°41' E 139°58'0 0.0
2015-Aug-30 17:30N 35°41' E 139°58'0 0.0
2015-Aug-30 16:33N 35°41' E 139°58'0 0.0
2015-Aug-30 15:33N 35°41' E 139°58'0 0.0
2015-Aug-30 14:30N 35°41' E 139°58'0 0.0
2015-Aug-30 13:33N 35°41' E 139°58'0 0.0
2015-Aug-30 12:33N 35°41' E 139°58'0 0.0
2015-Aug-30 11:30N 35°41' E 139°58'0 0.0
2015-Aug-30 10:30N 35°41' E 139°58'0 0.0
2015-Aug-30 09:30N 35°41' E 139°58'0 0.0
2015-Aug-30 08:33N 35°41' E 139°58'0 0.0
2015-Aug-30 07:30N 35°41' E 139°58'0 0.0
2015-Aug-30 06:24N 35°41' E 139°58'0 0.0
2015-Aug-30 05:33N 35°41' E 139°58'0 0.0
2015-Aug-30 04:33N 35°41' E 139°58'0 0.0
2015-Aug-30 03:33N 35°41' E 139°58'0 0.0
2015-Aug-30 02:33N 35°41' E 139°58'0 0.0
2015-Aug-30 01:30N 35°41' E 139°58'0 0.0
2015-Aug-30 00:33N 35°41' E 139°58'0 0.4
2015-Aug-29 23:23N 35°40' E 139°57'3 3.7
2015-Aug-29 22:33N 35°38' E 139°59'2 1.4
2015-Aug-29 21:23N 35°36' E 139°58'0 0.0
2015-Aug-29 20:17N 35°36' E 139°58'0 0.0
2015-Aug-29 19:17N 35°36' E 139°58'0 0.0
2015-Aug-29 18:29N 35°36' E 139°58'0 0.0
2015-Aug-29 17:29N 35°36' E 139°58'0 0.0
2015-Aug-29 16:11N 35°36' E 139°58'0 0.0
2015-Aug-29 15:29N 35°36' E 139°58'0 0.0
2015-Aug-29 14:23N 35°36' E 139°58'0 0.0
2015-Aug-29 13:23N 35°36' E 139°58'0 0.0
2015-Aug-29 12:29N 35°36' E 139°58'0 0.0
2015-Aug-29 11:11N 35°36' E 139°58'0 0.0
2015-Aug-29 10:29N 35°36' E 139°58'0 0.0
2015-Aug-29 09:29N 35°36' E 139°58'0 0.0
2015-Aug-29 08:17N 35°36' E 139°58'0 0.0
2015-Aug-29 07:23N 35°36' E 139°58'0 0.0
2015-Aug-29 06:29N 35°36' E 139°58'0 0.0
2015-Aug-29 05:29N 35°36' E 139°58'0 0.0
2015-Aug-29 03:29N 35°36' E 139°58'0 0.0
2015-Aug-29 02:23N 35°36' E 139°58'0 0.0
2015-Aug-29 01:11N 35°36' E 139°58'0 0.0
2015-Aug-29 00:05N 35°36' E 139°58'0 0.0
2015-Aug-28 23:29N 35°36' E 139°58'0 0.0
2015-Aug-28 22:17N 35°36' E 139°58'0 0.0
2015-Aug-28 21:29N 35°36' E 139°58'0 0.0
2015-Aug-28 20:29N 35°36' E 139°58'0 0.0
2015-Aug-28 19:11N 35°36' E 139°58'0 0.0
2015-Aug-28 18:23N 35°36' E 139°58'0 0.0
2015-Aug-28 17:17N 35°36' E 139°58'0 0.0
2015-Aug-28 16:29N 35°36' E 139°58'0 0.0
2015-Aug-28 15:29N 35°36' E 139°58'0 0.0
2015-Aug-28 14:23N 35°36' E 139°58'3 3.6
2015-Aug-28 13:33N 35°34' E 139°56'1211.5
2015-Aug-28 12:33N 35°25' E 139°47'10 9.9
2015-Aug-28 11:33N 35°15' E 139°47'1210.8
2015-Aug-28 10:25N 35°03' E 139°41'  

Dump ship's entire track history